小松飛行場の過去48時間の天気

小松飛行場 (Kanazawa/Komatsu)

現在時刻: 7/20 20:45 JST (7/20 11:45 UTC) 以下の時間は現地時間です。

過去48時間のMETAR気象情報
時間 風向 風速(m/s) 視程 気温(℃) 湿度(%) 気圧(hPa) 天気現象
20 20:00 不定 1 10km以上 27 84 1012
20 19:00 静穏 0 10km以上 26 89 1012 弱い雨
20 18:00 不定 1 10km以上 27 84 1012
20 17:00 西 2 10km以上 27 84 1012
20 16:00 不定 1 10km以上 27 84 1013
20 15:00 不定 1 10km以上 26 84 1013 弱い雨
20 14:00 北北西 2 10km以上 29 70 1014 弱い雨
20 13:00 不定 1 10km以上 28 74 1014 弱い雨
20 12:00 北東 2 10km以上 28 74 1014 弱い雨
20 11:00 北北西 2 10km以上 26 84 1015 弱い雨
20 10:00 不定 1 10km以上 27 74 1015 弱い雨
20 09:00 不定 1 10km以上 26 79 1014
20 08:00 2 10km以上 25 83 1014 弱い雨
20 07:00 不定 1 10km以上 24 89 1014 弱い雨
20 06:00 東北東 1 10km以上 24 89 1013
20 05:00 東南東 3 10km以上 24 89 1013
20 04:00 西南西 3 10km以上 24 94 1013
20 03:00 不定 1 10km以上 24 89 1012 弱いしゅう雨
20 02:00 北東 2 10km以上 25 83 1012
20 01:00 不定 1 10km以上 24 89 1012
20 00:00 2 10km以上 25 83 1012
19 23:00 不定 1 10km以上 26 79 1012
19 22:00 南南東 3 10km以上 27 74 1013 弱いしゅう雨
19 21:00 南南西 2 10km以上 26 79 1013
19 20:00 2 10km以上 27 74 1013
19 19:00 南南西 3 10km以上 27 70 1013 弱いしゅう雨
19 18:00 2 10km以上 27 79 1013
19 17:00 2 10km以上 28 70 1012
19 16:00 南西 2 10km以上 28 66 1012 弱いしゅう雨
19 15:00 南南西 3 10km以上 29 62 1012
19 14:00 南南西 5 10km以上 29 62 1012
19 13:00 南南西 4 10km以上 28 70 1012
19 12:00 5 10km以上 27 70 1012
19 11:00 南西 6 10km以上 25 83 1013
19 10:00 南西 5 10km以上 27 74 1012 弱いしゅう雨
19 09:00 南南西 4 10km以上 26 84 1012
19 08:00 3 10km以上 24 94 1012 弱いしゅう雨
19 07:00 西南西 2 10km以上 23 94 1012 弱いしゅう雨
19 06:00 南東 3 10km以上 23 94 1011
19 05:00 南西 2 10km以上 23 94 1011 弱いしゅう雨
19 04:00 不定 1 10km以上 23 94 1010
19 03:00 不定 1 10km以上 23 94 1010
19 02:00 不定 1 10km以上 23 94 1010 弱いしゅう雨
19 01:00 東北東 2 10km以上 23 94 1010
19 00:00 東北東 2 10km以上 23 94 1010
18 23:00 東北東 1 10km以上 23 94 1010
18 22:00 不定 1 10km以上 23 94 1010 弱いしゅう雨
18 21:00 不定 1 10km以上 23 94 1010 弱いしゅう雨
RJNK 201100Z VRB01KT 9999 FEW050 BKN120 BKN150 27/24 Q1012
RJNK 201000Z 00000KT 9999 -RA FEW050 SCT100 BKN120 26/24 Q1012
RJNK 200900Z VRB01KT 9999 FEW050 SCT100 BKN120 27/24 Q1012
RJNK 200800Z 28003KT 9999 FEW050 SCT080 BKN120 27/24 Q1012
RJNK 200700Z VRB02KT 9999 FEW050 SCT080 BKN100 27/24 Q1013
RJNK 200600Z VRB02KT 9999 -RA FEW030 BKN080 OVC100 26/23 Q1013
RJNK 200500Z 34003KT 300V040 9999 -RA FEW030 SCT080 BKN100 29/23 Q1014
RJNK 200400Z VRB02KT 9999 -RA FEW030 SCT100 OVC120 28/23 Q1014
RJNK 200300Z 04004KT 9999 -RA FEW030 SCT100 OVC120 28/23 Q1014
RJNK 200200Z 34003KT 300V010 9999 -RA FEW030 SCT100 OVC120 26/23 Q1015
RJNK 200100Z VRB02KT 9999 -RA FEW030 BKN100 BKN120 27/22 Q1015
RJNK 200000Z VRB02KT 9999 FEW030 BKN120 BKN150 26/22 Q1014
RJNK 192300Z 17003KT 140V200 9999 -RA FEW030 SCT100 BKN120 25/22 Q1014
RJNK 192200Z VRB02KT 9999 -RA FEW030 SCT060 BKN120 24/22 Q1014
RJNK 192100Z 06002KT 9999 FEW040 SCT120 BKN150 24/22 Q1013
RJNK 192000Z 11005KT 9999 FEW030 SCT040 BKN060 24/22 Q1013
RJNK 191900Z 25005KT 9999 FEW030 SCT040 OVC150 24/23 Q1013
RJNK 191800Z VRB02KT 9999 -SHRA FEW030 BKN040 OVC150 24/22 Q1012
RJNK 191700Z 05003KT 020V090 9999 FEW040 SCT120 OVC150 25/22 Q1012
RJNK 191600Z VRB02KT 9999 FEW040 SCT120 BKN150 24/22 Q1012
RJNK 191500Z 35003KT 330V030 9999 FEW040 SCT100 BKN150 25/22 Q1012
RJNK 191400Z VRB01KT 9999 FEW030 SCT040 BKN100 26/22 Q1012
RJNK 191300Z 15006KT 120V180 9999 -SHRA FEW030 BKN040 BKN060 27/22 Q1013
RJNK 191200Z 20004KT 9999 FEW030 SCT040 BKN060 26/22 Q1013
RJNK 191100Z 19003KT 9999 FEW030 SCT060 BKN100 27/22 Q1013
RJNK 191000Z 20005KT 9999 -SHRA FEW020 BKN060 BKN080 27/21 Q1013
RJNK 190900Z 17003KT 9999 FEW020 BKN060 BKN080 27/23 Q1013
RJNK 190800Z 19003KT 120V230 9999 FEW020 SCT030 BKN060 28/22 Q1012
RJNK 190700Z 23003KT 200V260 9999 -SHRA FEW020 BKN060 BKN080 28/21 Q1012
RJNK 190600Z 20005KT 160V240 9999 FEW020 BKN060 BKN100 29/21 Q1012
RJNK 190500Z 20009KT 9999 FEW025 SCT060 BKN100 29/21 Q1012
RJNK 190400Z 20008KT 170V240 9999 FEW025 SCT060 BKN090 28/22 Q1012
RJNK 190300Z 19009KT 9999 FEW025 BKN060 BKN080 27/21 Q1012
RJNK 190200Z 22012KT 9999 FEW005 SCT008 BKN040 25/22 Q1013
RJNK 190100Z 22010KT 9999 -SHRA FEW005 SCT025 BKN040 27/22 Q1012
RJNK 190000Z 20007KT 170V230 9999 FEW020 BKN040 BKN050 26/23 Q1012
RJNK 182300Z 17006KT 130V210 9999 -SHRA FEW003 SCT008 BKN050 24/23 Q1012
RJNK 182200Z 24004KT 9999 -SHRA FEW003 SCT008 BKN020 23/22 Q1012
RJNK 182100Z 13005KT 9999 FEW003 SCT020 BKN050 23/22 Q1011
RJNK 182000Z 22003KT 190V260 9999 -SHRA FEW003 BKN020 BKN050 23/22 Q1011
RJNK 181900Z VRB01KT 9999 FEW001 SCT020 BKN070 23/22 Q1010
RJNK 181800Z VRB02KT 9999 FEW005 SCT080 BKN120 23/22 Q1010
RJNK 181700Z VRB01KT 9999 -SHRA FEW003 SCT020 BKN080 23/22 Q1010
RJNK 181600Z 06003KT 9999 FEW003 SCT020 BKN080 23/22 Q1010
RJNK 181500Z 07003KT 030V180 9999 FEW003 SCT020 BKN120 23/22 Q1010
RJNK 181400Z 07002KT 9999 FEW020 SCT050 BKN120 23/22 Q1010
RJNK 181300Z VRB02KT 9999 -SHRA FEW005 SCT020 BKN120 23/22 Q1010
RJNK 181200Z VRB01KT 9999 -SHRA FEW003 SCT020 BKN050 23/22 Q1010